Time;durP1;ratioP1;P1;durP2;ratioP2;P2;SDS_P1;SDS_P2;PMS_P1;PMS_P2;Temp;Humidity;BMP_temperature;BMP_pressure;BME280_temperature;BME280_humidity;BME280_pressure;Samples;Min_cycle;Max_cycle;Signal;HPM_P1;HPM_P2
2022/04/26 03:37:06;;;;;;;1999.90;999.90;;;9.50;99.90;;;;;;5033842;28;20197;-65
2022/04/26 03:39:33;;;;;;;1999.90;999.90;;;9.50;99.90;;;;;;5000158;28;20194;-65
2022/04/26 03:41:59;;;;;;;1999.90;999.90;;;9.60;99.90;;;;;;5033206;28;20244;-66
2022/04/26 03:44:25;;;;;;;1999.90;999.90;;;9.50;99.90;;;;;;5015809;28;20186;-66
2022/04/26 03:46:50;;;;;;;1999.90;999.90;;;9.50;99.90;;;;;;5032980;28;20560;-66
2022/04/26 03:49:17;;;;;;;1999.90;999.90;;;9.40;99.90;;;;;;5027733;28;20242;-66
2022/04/26 03:51:42;;;;;;;1999.90;999.90;;;9.30;99.90;;;;;;5017808;28;20187;-66
2022/04/26 03:54:08;;;;;;;1999.90;999.90;;;9.30;99.90;;;;;;5032022;28;20535;-66
2022/04/26 03:56:33;;;;;;;1999.90;999.90;;;9.30;99.90;;;;;;5033100;28;20241;-65
2022/04/26 03:58:59;;;;;;;1999.90;999.90;;;9.20;99.90;;;;;;5042917;28;20197;-66
2022/04/26 04:01:25;;;;;;;1999.90;999.90;;;9.30;99.90;;;;;;5006639;28;20245;-65
2022/04/26 04:03:51;;;;;;;1999.90;999.90;;;9.30;99.90;;;;;;5031501;28;20186;-69
2022/04/26 04:06:17;;;;;;;1999.90;999.90;;;9.50;99.90;;;;;;5034683;28;20214;-66
2022/04/26 04:08:42;;;;;;;1999.90;999.90;;;9.70;99.90;;;;;;5015242;28;20256;-65
2022/04/26 04:11:08;;;;;;;1999.90;999.90;;;9.80;99.90;;;;;;5015175;28;20592;-66
2022/04/26 04:13:34;;;;;;;1999.90;999.90;;;9.70;99.90;;;;;;5032704;28;20639;-66
2022/04/26 04:15:59;;;;;;;1999.90;999.90;;;9.50;99.90;;;;;;5033049;28;20549;-65
2022/04/26 04:21:10;;;;;;;1999.90;999.90;;;9.80;99.90;;;;;;5017955;28;20694;-65
2022/04/26 04:23:36;;;;;;;1999.90;999.90;;;9.70;99.90;;;;;;5014938;28;20182;-65
2022/04/26 04:26:02;;;;;;;1999.90;999.90;;;9.70;99.90;;;;;;5034465;28;20259;-65
2022/04/26 04:28:28;;;;;;;1999.90;999.90;;;9.60;99.90;;;;;;5050784;28;20213;-66
2022/04/26 04:30:53;;;;;;;1999.90;999.90;;;9.60;99.90;;;;;;5030892;28;20190;-65
2022/04/26 04:33:19;;;;;;;1999.90;999.90;;;9.60;99.90;;;;;;5014126;28;20197;-64
2022/04/26 04:35:45;;;;;;;1999.90;999.90;;;9.50;99.90;;;;;;5031427;28;20558;-65
2022/04/26 04:38:10;;;;;;;1999.90;999.90;;;9.40;99.90;;;;;;5012491;28;20189;-65
2022/04/26 04:40:36;;;;;;;1999.90;999.90;;;9.40;99.90;;;;;;5047562;28;20268;-63
2022/04/26 04:43:01;;;;;;;1999.90;999.90;;;9.40;99.90;;;;;;5036146;28;20270;-67
2022/04/26 04:45:27;;;;;;;1999.90;999.90;;;9.40;99.90;;;;;;5015578;28;20186;-67
2022/04/26 04:47:53;;;;;;;1999.90;999.90;;;9.40;99.90;;;;;;5037547;28;20197;-67
2022/04/26 04:50:18;;;;;;;1999.90;999.90;;;9.40;99.90;;;;;;5042296;28;20270;-67
2022/04/26 04:52:45;;;;;;;1999.90;999.90;;;9.40;99.90;;;;;;5039708;28;20253;-70
2022/04/26 04:55:11;;;;;;;1999.90;999.90;;;9.50;99.90;;;;;;5039864;28;20264;-65
2022/04/26 04:57:37;;;;;;;1999.90;999.90;;;9.40;99.90;;;;;;5021614;28;20198;-67
2022/04/26 05:00:04;;;;;;;1999.90;999.90;;;9.30;99.90;;;;;;5017324;28;20600;-65
2022/04/26 05:02:29;;;;;;;1999.90;999.90;;;9.40;99.90;;;;;;5031541;28;20561;-67
2022/04/26 05:04:55;;;;;;;1999.90;999.90;;;9.60;99.90;;;;;;5035073;28;20205;-66
2022/04/26 05:07:21;;;;;;;1999.90;999.90;;;9.50;99.90;;;;;;5036101;28;20658;-65
2022/04/26 05:09:46;;;;;;;1999.90;999.90;;;9.30;99.90;;;;;;5036081;28;20592;-66
2022/04/26 05:12:12;;;;;;;1999.90;999.90;;;9.00;99.90;;;;;;5034963;28;20206;-65
2022/04/26 05:14:38;;;;;;;1999.90;999.90;;;8.70;99.90;;;;;;5036817;28;20289;-68
2022/04/26 05:17:04;;;;;;;1999.90;999.90;;;8.50;99.90;;;;;;5035825;28;20179;-65
2022/04/26 05:19:29;;;;;;;1999.90;999.90;;;8.40;99.90;;;;;;5036299;28;20538;-65
2022/04/26 05:21:55;;;;;;;1999.90;999.90;;;8.50;99.90;;;;;;5035637;28;20226;-66
2022/04/26 05:27:05;;;;;;;1999.90;999.90;;;8.60;99.90;;;;;;5035649;28;20294;-64
2022/04/26 05:29:30;;;;;;;1999.90;999.90;;;8.70;99.90;;;;;;5033820;28;20725;-67
2022/04/26 05:31:56;;;;;;;1999.90;999.90;;;8.80;99.90;;;;;;5033340;28;20274;-66
2022/04/26 05:34:22;;;;;;;1999.90;999.90;;;8.80;99.90;;;;;;5033704;28;20198;-69
2022/04/26 05:36:50;;;;;;;1999.90;999.90;;;8.80;99.90;;;;;;5015536;28;20182;-67
2022/04/26 05:39:15;;;;;;;1999.90;999.90;;;8.80;99.90;;;;;;5019561;28;20323;-68
2022/04/26 05:41:41;;;;;;;1999.90;999.90;;;9.00;99.90;;;;;;5035783;28;20305;-68
2022/04/26 05:44:07;;;;;;;1999.90;999.90;;;9.00;99.90;;;;;;5033900;28;20187;-68
2022/04/26 05:46:32;;;;;;;1999.90;999.90;;;9.10;99.90;;;;;;5022827;28;20579;-68
2022/04/26 05:48:58;;;;;;;1999.90;999.90;;;9.10;99.90;;;;;;5035303;28;20202;-68
2022/04/26 05:51:24;;;;;;;1999.90;999.90;;;9.20;99.90;;;;;;5035160;28;20273;-69
2022/04/26 05:53:49;;;;;;;1999.90;999.90;;;9.40;99.90;;;;;;5034110;28;20190;-68
2022/04/26 05:56:15;;;;;;;1999.90;999.90;;;9.40;99.90;;;;;;5017164;28;20193;-68
2022/04/26 05:58:41;;;;;;;1999.90;999.90;;;9.50;99.90;;;;;;5035103;28;20179;-69
2022/04/26 06:01:07;;;;;;;1999.90;999.90;;;9.70;99.90;;;;;;5017307;28;20280;-68
2022/04/26 06:03:34;;;;;;;1999.90;999.90;;;9.90;99.90;;;;;;5017305;28;20182;-69
2022/04/26 06:05:59;;;;;;;1999.90;999.90;;;10.00;99.90;;;;;;5027876;28;20210;-67
2022/04/26 06:08:25;;;;;;;1999.90;999.90;;;10.00;99.90;;;;;;5034662;28;20237;-69
2022/04/26 06:10:51;;;;;;;1999.90;999.90;;;10.00;99.90;;;;;;5033635;28;20198;-68
2022/04/26 06:13:16;;;;;;;1999.90;999.90;;;10.00;99.90;;;;;;5033819;28;20193;-68
2022/04/26 06:15:42;;;;;;;1999.90;999.90;;;10.10;99.90;;;;;;5033250;28;20191;-68
2022/04/26 06:18:08;;;;;;;1999.90;999.90;;;10.00;99.90;;;;;;5016747;28;20241;-68
2022/04/26 06:20:33;;;;;;;1999.90;999.90;;;10.10;99.90;;;;;;5017180;28;20269;-68
2022/04/26 06:23:00;;;;;;;1999.90;999.90;;;10.20;99.90;;;;;;5033260;28;20186;-67
2022/04/26 06:25:26;;;;;;;1999.90;999.90;;;10.30;99.90;;;;;;5001341;28;20195;-68
2022/04/26 06:27:52;;;;;;;1999.90;999.90;;;10.40;99.90;;;;;;5016640;28;20282;-69
2022/04/26 06:30:17;;;;;;;1999.90;999.90;;;10.30;99.90;;;;;;5017375;28;20202;-68
2022/04/26 06:32:43;;;;;;;1999.90;999.90;;;10.30;99.90;;;;;;5034589;28;20191;-68
2022/04/26 06:35:10;;;;;;;1999.90;999.90;;;10.10;99.90;;;;;;5034450;28;20563;-67
2022/04/26 06:37:36;;;;;;;1999.90;999.90;;;10.00;99.90;;;;;;5034076;28;20324;-68
2022/04/26 06:40:03;;;;;;;1999.90;999.90;;;10.20;99.90;;;;;;5033106;28;20754;-68
2022/04/26 06:42:29;;;;;;;1999.90;999.90;;;10.30;99.90;;;;;;5000650;28;20183;-68
2022/04/26 06:44:55;;;;;;;1999.90;999.90;;;10.40;99.90;;;;;;5033480;28;20186;-68
2022/04/26 06:47:20;;;;;;;1999.90;999.90;;;10.60;99.90;;;;;;5016394;28;20187;-68
2022/04/26 06:49:46;;;;;;;1999.90;999.90;;;10.80;99.90;;;;;;5034098;28;20181;-68
2022/04/26 06:52:11;;;;;;;1999.90;999.90;;;10.80;99.90;;;;;;5033196;28;20317;-67
2022/04/26 06:54:37;;;;;;;1999.90;999.90;;;10.80;99.90;;;;;;5016552;28;20197;-68
2022/04/26 06:57:03;;;;;;;1999.90;999.90;;;10.80;99.90;;;;;;5034263;28;20195;-67
2022/04/26 06:59:29;;;;;;;1999.90;999.90;;;10.80;99.90;;;;;;5033882;28;20194;-69
2022/04/26 07:01:55;;;;;;;1999.90;999.90;;;10.80;99.90;;;;;;5034408;28;20218;-67
2022/04/26 07:04:21;;;;;;;1999.90;999.90;;;10.70;99.90;;;;;;5016413;28;20187;-68
2022/04/26 07:06:47;;;;;;;1999.90;999.90;;;10.80;99.90;;;;;;5033635;28;20720;-68
2022/04/26 07:09:13;;;;;;;1999.90;999.90;;;10.90;99.90;;;;;;5043535;28;20186;-67
2022/04/26 07:11:42;;;;;;;1999.90;999.90;;;10.60;99.90;;;;;;5015278;28;20557;-67
2022/04/26 07:14:09;;;;;;;1999.90;999.90;;;10.70;99.90;;;;;;5000213;28;20206;-67
2022/04/26 07:16:35;;;;;;;1999.90;999.90;;;10.60;99.90;;;;;;5031206;28;20190;-67
2022/04/26 07:19:00;;;;;;;1999.90;999.90;;;10.60;99.90;;;;;;5032363;28;20233;-68
2022/04/26 07:21:26;;;;;;;1999.90;999.90;;;10.90;99.90;;;;;;5033377;28;20218;-67
2022/04/26 07:23:52;;;;;;;1999.90;999.90;;;11.00;99.90;;;;;;5015816;28;20526;-67
2022/04/26 07:26:17;;;;;;;1999.90;999.90;;;11.00;99.90;;;;;;5005070;28;20563;-67
2022/04/26 07:28:43;;;;;;;1999.90;999.90;;;11.00;99.90;;;;;;5018311;28;20588;-67
2022/04/26 07:31:08;;;;;;;1999.90;999.90;;;10.90;99.90;;;;;;5033477;28;20190;-68
2022/04/26 07:36:22;;;;;;;1999.90;999.90;;;10.70;99.90;;;;;;5032447;28;20321;-68
2022/04/26 07:38:48;;;;;;;1999.90;999.90;;;10.60;99.90;;;;;;5033453;28;20179;-67
2022/04/26 07:41:13;;;;;;;1999.90;999.90;;;11.00;99.90;;;;;;5030626;28;20271;-68
2022/04/26 07:43:39;;;;;;;1999.90;999.90;;;10.90;99.90;;;;;;5004167;28;20695;-68
2022/04/26 07:46:06;;;;;;;1999.90;999.90;;;10.70;99.90;;;;;;5030707;28;20188;-68
2022/04/26 07:48:31;;;;;;;1999.90;999.90;;;10.80;99.90;;;;;;5021486;28;20249;-67
2022/04/26 07:50:57;;;;;;;1999.90;999.90;;;11.00;99.90;;;;;;5015391;28;20190;-68
2022/04/26 07:53:25;;;;;;;1999.90;999.90;;;11.10;99.90;;;;;;5027405;28;20269;-68
2022/04/26 07:55:51;;;;;;;1999.90;999.90;;;11.30;99.90;;;;;;5034580;28;20281;-68
2022/04/26 07:58:16;;;;;;;1999.90;999.90;;;11.60;99.90;;;;;;5051780;28;20616;-70
2022/04/26 08:00:42;;;;;;;1999.90;999.90;;;11.70;99.90;;;;;;5035714;28;20215;-69
2022/04/26 08:03:08;;;;;;;1999.90;999.90;;;11.70;99.90;;;;;;5048305;28;20521;-69
2022/04/26 08:05:33;;;;;;;1999.90;999.90;;;11.90;99.90;;;;;;5015423;28;20252;-68
2022/04/26 08:07:59;;;;;;;1999.90;999.90;;;11.80;99.90;;;;;;5033200;28;20198;-67
2022/04/26 08:10:25;;;;;;;1999.90;999.90;;;11.90;99.90;;;;;;5030352;28;20190;-67
2022/04/26 08:12:50;;;;;;;1999.90;999.90;;;12.90;99.90;;;;;;5033092;28;20544;-69
2022/04/26 08:15:18;;;;;;;1999.90;999.90;;;13.60;99.90;;;;;;5033045;28;20195;-68
2022/04/26 08:17:44;;;;;;;1999.90;999.90;;;14.30;99.90;;;;;;4999298;28;20707;-67
2022/04/26 08:20:10;;;;;;;1999.90;999.90;;;13.90;99.90;;;;;;5032957;28;20317;-67
2022/04/26 08:22:37;;;;;;;1999.90;999.90;;;13.50;99.90;;;;;;5032242;28;20721;-68
2022/04/26 08:27:49;;;;;;;1999.90;999.90;;;13.00;99.90;;;;;;5033152;28;20185;-68
2022/04/26 08:30:14;;;;;;;1999.90;999.90;;;13.40;99.90;;;;;;5032887;28;20553;-67
2022/04/26 08:32:42;;;;;;;1999.90;999.90;;;13.80;99.90;;;;;;5032558;28;20266;-68
2022/04/26 08:35:13;;;;;;;1999.90;999.90;;;13.80;99.90;;;;;;5047159;28;20217;-68
2022/04/26 08:37:38;;;;;;;1999.90;999.90;;;14.20;99.90;;;;;;5030819;28;20182;-68
2022/04/26 08:40:07;;;;;;;1999.90;999.90;;;14.10;99.90;;;;;;5036457;28;20195;-68
2022/04/26 08:42:37;;;;;;;1999.90;999.90;;;13.40;99.90;;;;;;5035231;28;20550;-68
2022/04/26 08:45:05;;;;;;;1999.90;999.90;;;13.50;99.90;;;;;;5035154;28;20186;-68
2022/04/26 08:53:00;;;;;;;1999.90;999.90;;;16.70;99.90;;;;;;5036654;28;20240;-68
2022/04/26 08:55:26;;;;;;;1999.90;999.90;;;17.30;99.90;;;;;;5036500;28;20628;-67
2022/04/26 08:57:52;;;;;;;1999.90;999.90;;;16.90;99.90;;;;;;5036219;28;20205;-68
2022/04/26 09:00:18;;;;;;;1999.90;999.90;;;16.30;99.90;;;;;;5035045;28;20187;-68
2022/04/26 09:03:03;;;;;;;1999.90;999.90;;;16.40;99.90;;;;;;5036060;28;20178;-69
2022/04/26 09:05:30;;;;;;;1999.90;999.90;;;15.40;99.90;;;;;;5019591;28;20183;-69
2022/04/26 09:07:56;;;;;;;1999.90;999.90;;;14.40;99.90;;;;;;5036034;28;20202;-68
2022/04/26 09:10:22;;;;;;;1999.90;999.90;;;14.50;99.90;;;;;;5018515;28;20236;-68
2022/04/26 09:13:07;;;;;;;1999.90;999.90;;;15.00;99.90;;;;;;5018604;28;20182;-69
2022/04/26 09:15:45;;;;;;;1999.90;999.90;;;14.60;99.90;;;;;;5036203;28;20181;-68
2022/04/26 09:18:31;;;;;;;1999.90;999.90;;;14.50;99.90;;;;;;5036555;28;20182;-67
2022/04/26 09:21:12;;;;;;;1999.90;999.90;;;14.50;99.90;;;;;;5020124;28;20218;-68
2022/04/26 09:23:42;;;;;;;1999.90;999.90;;;14.20;99.90;;;;;;5021268;28;20187;-68
2022/04/26 09:26:12;;;;;;;1999.90;999.90;;;14.10;99.90;;;;;;5035676;28;20605;-66
2022/04/26 09:28:42;;;;;;;1999.90;999.90;;;14.20;99.90;;;;;;5018611;28;20187;-68
2022/04/26 09:31:31;;;;;;;1999.90;999.90;;;13.70;99.90;;;;;;5036000;28;20201;-67
2022/04/26 09:34:04;;;;;;;1999.90;999.90;;;14.00;99.90;;;;;;5035490;28;20209;-67
2022/04/26 09:36:35;;;;;;;1999.90;999.90;;;14.10;99.90;;;;;;5035737;28;20266;-67
2022/04/26 09:39:02;;;;;;;1999.90;999.90;;;14.20;99.90;;;;;;5035802;28;20647;-67
2022/04/26 09:41:29;;;;;;;1999.90;999.90;;;14.30;99.90;;;;;;5035606;28;20218;-70
2022/04/26 09:44:03;;;;;;;1999.90;999.90;;;14.30;99.90;;;;;;5034454;28;20290;-70
2022/04/26 09:46:54;;;;;;;1999.90;999.90;;;14.30;99.90;;;;;;5032629;28;20612;-68
2022/04/26 09:49:22;;;;;;;1999.90;999.90;;;14.20;99.90;;;;;;5032612;28;20201;-68
2022/04/26 09:51:51;;;;;;;1999.90;999.90;;;13.70;99.90;;;;;;5034521;28;20282;-67
2022/04/26 09:54:17;;;;;;;1999.90;999.90;;;13.70;99.90;;;;;;5033684;28;20191;-67
2022/04/26 09:56:45;;;;;;;1999.90;999.90;;;13.90;99.90;;;;;;5017379;28;20209;-67
2022/04/26 09:59:20;;;;;;;1999.90;999.90;;;13.90;99.90;;;;;;5020696;28;20596;-67
2022/04/26 10:01:53;;;;;;;1999.90;999.90;;;14.20;99.90;;;;;;5049385;28;20248;-67
2022/04/26 10:04:21;;;;;;;1999.90;999.90;;;14.40;99.90;;;;;;5025574;28;20229;-67
2022/04/26 10:06:56;;;;;;;1999.90;999.90;;;14.30;99.90;;;;;;5034467;28;20219;-68
2022/04/26 10:09:23;;;;;;;1999.90;999.90;;;14.20;99.90;;;;;;5034862;28;20178;-67
2022/04/26 10:11:53;;;;;;;1999.90;999.90;;;14.10;99.90;;;;;;5033844;28;20592;-67
2022/04/26 10:14:21;;;;;;;1999.90;999.90;;;13.80;99.90;;;;;;5034568;28;20186;-67
2022/04/26 10:16:47;;;;;;;1999.90;999.90;;;13.80;99.90;;;;;;5034314;28;20221;-68
2022/04/26 10:19:13;;;;;;;1999.90;999.90;;;14.30;99.90;;;;;;5017326;28;20193;-67
2022/04/26 10:21:38;;;;;;;1999.90;999.90;;;14.40;99.90;;;;;;5016471;28;20222;-67
2022/04/26 10:24:20;;;;;;;1999.90;999.90;;;14.60;99.90;;;;;;5035028;28;20194;-68
2022/04/26 10:26:47;;;;;;;1999.90;999.90;;;14.40;99.90;;;;;;5032222;28;20186;-68
2022/04/26 10:29:21;;;;;;;1999.90;999.90;;;14.40;99.90;;;;;;5034584;28;20179;-68
2022/04/26 10:32:01;;;;;;;1999.90;999.90;;;14.60;99.90;;;;;;5034137;28;20277;-66
2022/04/26 10:34:29;;;;;;;1999.90;999.90;;;14.60;99.90;;;;;;5034406;28;20221;-67
2022/04/26 10:37:00;;;;;;;1999.90;999.90;;;14.70;99.90;;;;;;5034808;28;20181;-67
2022/04/26 10:39:31;;;;;;;1999.90;999.90;;;14.90;99.90;;;;;;5041885;28;20196;-67
2022/04/26 10:41:57;;;;;;;1999.90;999.90;;;15.10;99.90;;;;;;5037035;28;20238;-66
2022/04/26 10:44:26;;;;;;;1999.90;999.90;;;15.20;99.90;;;;;;5034261;28;20189;-67
2022/04/26 10:47:02;;;;;;;1999.90;999.90;;;15.10;99.90;;;;;;5034136;28;20187;-67
2022/04/26 10:49:39;;;;;;;1999.90;999.90;;;14.80;99.90;;;;;;5016160;28;20186;-68
2022/04/26 10:52:23;;;;;;;1999.90;999.90;;;14.30;99.90;;;;;;5016596;28;20202;-67
2022/04/26 10:54:55;;;;;;;1999.90;999.90;;;14.30;99.90;;;;;;5039814;28;20527;-67
2022/04/26 10:57:39;;;;;;;1999.90;999.90;;;14.50;99.90;;;;;;5043834;28;20650;-67
2022/04/26 11:00:07;;;;;;;1999.90;999.90;;;14.50;99.90;;;;;;5034103;28;20179;-67
2022/04/26 11:02:41;;;;;;;1999.90;999.90;;;14.40;99.90;;;;;;5034569;28;20186;-67
2022/04/26 11:05:10;;;;;;;1999.90;999.90;;;14.50;99.90;;;;;;5033656;28;20261;-68
2022/04/26 11:07:43;;;;;;;1999.90;999.90;;;14.60;99.90;;;;;;5033713;28;20210;-68
2022/04/26 11:10:10;;;;;;;1999.90;999.90;;;14.50;99.90;;;;;;5033859;28;20634;-67
2022/04/26 11:12:38;;;;;;;1999.90;999.90;;;14.80;99.90;;;;;;5049078;28;20190;-68
2022/04/26 11:15:07;;;;;;;1999.90;999.90;;;15.10;99.90;;;;;;5033820;28;20210;-68
2022/04/26 11:17:34;;;;;;;1999.90;999.90;;;15.40;99.90;;;;;;5033613;28;20265;-68
2022/04/26 11:20:12;;;;;;;1999.90;999.90;;;15.30;99.90;;;;;;5031580;28;20237;-68
2022/04/26 11:22:55;;;;;;;1999.90;999.90;;;15.30;99.90;;;;;;5033658;28;20195;-68
2022/04/26 11:28:17;;;;;;;1999.90;999.90;;;14.90;99.90;;;;;;5033996;28;20197;-68
2022/04/26 11:30:54;;;;;;;1999.90;999.90;;;14.70;99.90;;;;;;5042433;28;20183;-68
2022/04/26 11:33:24;;;;;;;1999.90;999.90;;;14.60;99.90;;;;;;5033642;28;20178;-68
2022/04/26 11:35:55;;;;;;;1999.90;999.90;;;14.60;99.90;;;;;;5030475;28;20194;-69
2022/04/26 11:38:22;;;;;;;1999.90;999.90;;;14.50;99.90;;;;;;5033594;28;20185;-68
2022/04/26 11:40:58;;;;;;;1999.90;999.90;;;14.50;99.90;;;;;;5029291;28;20627;-67
2022/04/26 11:43:26;;;;;;;1999.90;999.90;;;14.70;99.90;;;;;;5030967;28;20223;-67
2022/04/26 11:45:54;;;;;;;1999.90;999.90;;;14.80;99.90;;;;;;5033112;28;20186;-68
2022/04/26 11:48:25;;;;;;;1999.90;999.90;;;15.00;99.90;;;;;;5019229;28;20190;-68
2022/04/26 11:50:53;;;;;;;1999.90;999.90;;;14.70;99.90;;;;;;5021746;28;20186;-67
2022/04/26 11:53:21;;;;;;;1999.90;999.90;;;14.60;99.90;;;;;;5048029;28;20178;-70
2022/04/26 11:55:54;;;;;;;1999.90;999.90;;;14.50;99.90;;;;;;5031712;28;20252;-67
2022/04/26 11:58:20;;;;;;;1999.90;999.90;;;14.50;99.90;;;;;;5015303;28;20197;-67
2022/04/26 12:00:50;;;;;;;1999.90;999.90;;;14.50;99.90;;;;;;5033087;28;20658;-67
2022/04/26 12:03:17;;;;;;;1999.90;999.90;;;14.70;99.90;;;;;;5051430;28;20192;-67
2022/04/26 12:05:43;;;;;;;1999.90;999.90;;;14.60;99.90;;;;;;5018270;28;20545;-68
2022/04/26 12:08:13;;;;;;;1999.90;999.90;;;14.70;99.90;;;;;;5031262;28;20197;-67
2022/04/26 12:10:39;;;;;;;1999.90;999.90;;;14.80;99.90;;;;;;5015078;28;20730;-67
2022/04/26 12:13:05;;;;;;;1999.90;999.90;;;14.80;99.90;;;;;;5031069;28;20198;-67
2022/04/26 12:15:33;;;;;;;1999.90;999.90;;;14.80;99.90;;;;;;5015455;28;20273;-68
2022/04/26 12:18:09;;;;;;;1999.90;999.90;;;15.10;99.90;;;;;;5015429;28;20177;-67
2022/04/26 12:21:02;;;;;;;1999.90;999.90;;;15.70;99.90;;;;;;5047494;28;20311;-67
2022/04/26 12:23:29;;;;;;;1999.90;999.90;;;16.40;99.90;;;;;;5032626;28;20202;-68
2022/04/26 12:25:57;;;;;;;1999.90;999.90;;;16.00;99.90;;;;;;5019216;28;20274;-68
2022/04/26 12:28:23;;;;;;;1999.90;999.90;;;15.90;99.90;;;;;;5039225;28;20295;-68
2022/04/26 12:30:49;;;;;;;1999.90;999.90;;;15.80;99.90;;;;;;5041876;28;20190;-68
2022/04/26 12:33:36;;;;;;;1999.90;999.90;;;15.70;99.90;;;;;;5030520;28;20198;-67
2022/04/26 12:36:04;;;;;;;1999.90;999.90;;;16.10;99.90;;;;;;5015673;28;20194;-68
2022/04/26 12:38:43;;;;;;;1999.90;999.90;;;16.30;99.90;;;;;;5032783;28;20269;-68
2022/04/26 12:41:09;;;;;;;1999.90;999.90;;;16.40;99.90;;;;;;5016994;28;20276;-67
2022/04/26 12:43:35;;;;;;;1999.90;999.90;;;16.80;99.90;;;;;;5032602;28;20643;-67
2022/04/26 12:46:06;;;;;;;1999.90;999.90;;;17.00;99.90;;;;;;5031556;28;20241;-68
2022/04/26 12:51:24;;;;;;;1999.90;999.90;;;16.80;99.90;;;;;;5031884;28;20206;-68
2022/04/26 12:53:52;;;;;;;1999.90;999.90;;;16.10;99.90;;;;;;5015974;28;20269;-68
2022/04/26 12:56:19;;;;;;;1999.90;999.90;;;15.90;99.90;;;;;;5050476;28;20189;-68
2022/04/26 12:58:47;;;;;;;1999.90;999.90;;;16.10;99.90;;;;;;5037892;28;20174;-68
2022/04/26 13:01:14;;;;;;;1999.90;999.90;;;15.80;99.90;;;;;;5048772;28;20210;-68
2022/04/26 13:03:42;;;;;;;1999.90;999.90;;;15.70;99.90;;;;;;5015047;28;20179;-68
2022/04/26 13:06:17;;;;;;;1999.90;999.90;;;16.10;99.90;;;;;;5029646;28;20685;-68
2022/04/26 13:08:45;;;;;;;1999.90;999.90;;;16.30;99.90;;;;;;5040766;28;20642;-68
2022/04/26 13:11:20;;;;;;;1999.90;999.90;;;16.30;99.90;;;;;;5051488;28;20186;-68
2022/04/26 13:13:48;;;;;;;1999.90;999.90;;;16.80;99.90;;;;;;5017395;28;20185;-68
2022/04/26 13:16:13;;;;;;;1999.90;999.90;;;16.90;99.90;;;;;;5032776;28;20182;-68
2022/04/26 13:18:40;;;;;;;1999.90;999.90;;;17.00;99.90;;;;;;4998721;28;20237;-69
2022/04/26 13:21:06;;;;;;;1999.90;999.90;;;16.60;99.90;;;;;;5014677;28;20210;-68
2022/04/26 13:23:34;;;;;;;1999.90;999.90;;;16.50;99.90;;;;;;5031081;28;20539;-68
2022/04/26 13:26:00;;;;;;;1999.90;999.90;;;16.80;99.90;;;;;;5030329;28;20217;-69
2022/04/26 13:28:26;;;;;;;1999.90;999.90;;;17.10;99.90;;;;;;5035711;28;20666;-69
2022/04/26 13:30:52;;;;;;;1999.90;999.90;;;16.90;99.90;;;;;;5035795;28;20191;-69
2022/04/26 13:33:17;;;;;;;1999.90;999.90;;;16.90;99.90;;;;;;5027907;28;20265;-69
2022/04/26 13:35:43;;;;;;;1999.90;999.90;;;17.20;99.90;;;;;;5034332;28;20233;-69
2022/04/26 13:38:13;;;;;;;1999.90;999.90;;;17.60;99.90;;;;;;5017984;28;20182;-69
2022/04/26 13:40:40;;;;;;;1999.90;999.90;;;17.70;99.90;;;;;;5034691;28;20364;-69
2022/04/26 13:43:07;;;;;;;1999.90;999.90;;;17.50;99.90;;;;;;5001627;28;20548;-69
2022/04/26 13:45:33;;;;;;;1999.90;999.90;;;17.40;99.90;;;;;;5034451;28;20175;-68
2022/04/26 13:48:01;;;;;;;1999.90;999.90;;;17.30;99.90;;;;;;5031977;28;20179;-68
2022/04/26 13:50:30;;;;;;;1999.90;999.90;;;17.30;99.90;;;;;;5035246;28;20190;-67
2022/04/26 13:52:56;;;;;;;1999.90;999.90;;;17.50;99.90;;;;;;5017926;28;20252;-68
2022/04/26 13:55:26;;;;;;;1999.90;999.90;;;17.60;99.90;;;;;;5017624;28;20190;-68
2022/04/26 13:57:53;;;;;;;1999.90;999.90;;;17.60;99.90;;;;;;5034472;28;20182;-68
2022/04/26 14:00:19;;;;;;;1999.90;999.90;;;17.20;99.90;;;;;;5027960;28;20194;-68
2022/04/26 14:02:46;;;;;;;1999.90;999.90;;;16.90;99.90;;;;;;5002475;28;20654;-68
2022/04/26 14:05:20;;;;;;;1999.90;999.90;;;16.90;99.90;;;;;;5022292;28;20327;-68
2022/04/26 14:07:46;;;;;;;1999.90;999.90;;;16.80;99.90;;;;;;5034871;28;20201;-68
2022/04/26 14:10:14;;;;;;;1999.90;999.90;;;16.80;99.90;;;;;;5034003;28;20186;-68
2022/04/26 14:12:40;;;;;;;1999.90;999.90;;;16.80;99.90;;;;;;5017314;28;20277;-68
2022/04/26 14:23:22;;;;;;;1999.90;999.90;;;16.60;99.90;;;;;;5034419;28;20221;-68
2022/04/26 14:25:48;;;;;;;1999.90;999.90;;;16.40;99.90;;;;;;5033281;28;20190;-68
2022/04/26 14:28:14;;;;;;;1999.90;999.90;;;16.60;99.90;;;;;;5033406;28;20187;-70
2022/04/26 14:30:41;;;;;;;1999.90;999.90;;;16.50;99.90;;;;;;5034568;28;20190;-69
2022/04/26 14:33:06;;;;;;;1999.90;999.90;;;16.80;99.90;;;;;;5034469;28;20199;-68
2022/04/26 14:35:32;;;;;;;1999.90;999.90;;;16.70;99.90;;;;;;5016176;28;20190;-68
2022/04/26 14:37:59;;;;;;;1999.90;999.90;;;16.80;99.90;;;;;;5034848;28;20197;-69
2022/04/26 14:40:24;;;;;;;1999.90;999.90;;;17.10;99.90;;;;;;5034502;28;20635;-68
2022/04/26 14:42:50;;;;;;;1999.90;999.90;;;17.00;99.90;;;;;;5039073;28;20185;-69
2022/04/26 14:45:16;;;;;;;1999.90;999.90;;;16.60;99.90;;;;;;5050774;28;20182;-66
2022/04/26 14:47:42;;;;;;;1999.90;999.90;;;16.80;99.90;;;;;;5049602;28;20192;-66
2022/04/26 14:50:09;;;;;;;1999.90;999.90;;;16.90;99.90;;;;;;5050616;28;20185;-67
2022/04/26 14:52:36;;;;;;;1999.90;999.90;;;17.10;99.90;;;;;;5050338;28;20178;-67
2022/04/26 14:55:04;;;;;;;1999.90;999.90;;;17.30;99.90;;;;;;5021788;28;20244;-69
2022/04/26 14:57:29;;;;;;;1999.90;999.90;;;17.30;99.90;;;;;;5027217;28;20193;-67
2022/04/26 14:59:55;;;;;;;1999.90;999.90;;;17.10;99.90;;;;;;5034504;28;20535;-67
2022/04/26 15:02:21;;;;;;;1999.90;999.90;;;17.00;99.90;;;;;;5031949;28;20222;-66
2022/04/26 15:04:48;;;;;;;1999.90;999.90;;;16.90;99.90;;;;;;5016521;28;20213;-67
2022/04/26 15:07:14;;;;;;;1999.90;999.90;;;16.80;99.90;;;;;;5048779;28;22027;-66
2022/04/26 15:09:43;;;;;;;1999.90;999.90;;;16.60;99.90;;;;;;5035573;28;20528;-67
2022/04/26 15:17:41;;;;;;;1999.90;999.90;;;16.40;99.90;;;;;;5044257;28;20221;-67
2022/04/26 15:20:08;;;;;;;1999.90;999.90;;;16.50;99.90;;;;;;5038614;28;20190;-66
2022/04/26 15:22:36;;;;;;;1999.90;999.90;;;16.60;99.90;;;;;;5040383;28;20246;-67
2022/04/26 15:25:05;;;;;;;1999.90;999.90;;;16.90;99.90;;;;;;5032596;28;20191;-68
2022/04/26 15:27:31;;;;;;;1999.90;999.90;;;16.90;99.90;;;;;;5033186;28;20178;-67
2022/04/26 15:29:57;;;;;;;1999.90;999.90;;;16.70;99.90;;;;;;5010731;28;20190;-68
2022/04/26 15:32:25;;;;;;;1999.90;999.90;;;16.70;99.90;;;;;;5033734;28;20261;-67
2022/04/26 15:34:51;;;;;;;1999.90;999.90;;;16.90;99.90;;;;;;5024705;28;20190;-67
2022/04/26 15:37:16;;;;;;;1999.90;999.90;;;16.80;99.90;;;;;;5023292;28;20182;-68
2022/04/26 15:39:43;;;;;;;1999.90;999.90;;;16.80;99.90;;;;;;5048849;28;20187;-70
2022/04/26 15:42:09;;;;;;;1999.90;999.90;;;16.70;99.90;;;;;;5015374;28;20716;-67
2022/04/26 15:44:35;;;;;;;1999.90;999.90;;;16.60;99.90;;;;;;5017230;28;20197;-68
2022/04/26 15:47:01;;;;;;;1999.90;999.90;;;16.50;99.90;;;;;;5032621;28;20198;-66
2022/04/26 15:49:27;;;;;;;1999.90;999.90;;;16.40;99.90;;;;;;5031578;28;20593;-68
2022/04/26 15:51:56;;;;;;;1999.90;999.90;;;16.30;99.90;;;;;;5014613;28;20207;-68
2022/04/26 15:54:22;;;;;;;1999.90;999.90;;;16.20;99.90;;;;;;5039873;28;20179;-69
2022/04/26 15:56:47;;;;;;;1999.90;999.90;;;15.90;99.90;;;;;;5032941;28;20255;-70
2022/04/26 15:59:13;;;;;;;1999.90;999.90;;;15.80;99.90;;;;;;5020066;28;20195;-69
2022/04/26 16:01:39;;;;;;;1999.90;999.90;;;15.90;99.90;;;;;;5059427;28;20217;-71
2022/04/26 16:04:06;;;;;;;1999.90;999.90;;;16.10;99.90;;;;;;5046877;28;20290;-70
2022/04/26 16:06:37;;;;;;;1999.90;999.90;;;16.20;99.90;;;;;;5044193;28;20209;-66
2022/04/26 16:22:46;;;;;;;1999.90;999.90;;;15.90;99.90;;;;;;5041712;28;20235;-72
2022/04/26 16:25:12;;;;;;;1999.90;999.90;;;15.90;99.90;;;;;;5039044;28;20194;-70
2022/04/26 16:27:38;;;;;;;1999.90;999.90;;;15.90;99.90;;;;;;5019774;28;20630;-71
2022/04/26 16:30:04;;;;;;;1999.90;999.90;;;16.00;99.90;;;;;;5029238;28;20233;-72